Time;durP1;ratioP1;P1;durP2;ratioP2;P2;SDS_P1;SDS_P2;PMS_P1;PMS_P2;Temp;Humidity;BMP_temperature;BMP_pressure;BME280_temperature;BME280_humidity;BME280_pressure;Samples;Min_cycle;Max_cycle;Signal;HPM_P1;HPM_P2
2022/09/06 00:00:13;;;;;;;0.10;0.10;;;;;;;8.19;73.92;99944.88;4968948;28;20046;-69
2022/09/06 00:02:40;;;;;;;0.00;0.00;;;;;;;8.11;74.19;99948.03;4950183;28;20054;-69
2022/09/06 00:05:08;;;;;;;0.10;0.10;;;;;;;8.01;74.53;99952.31;4946997;28;20407;-71
2022/09/06 00:07:36;;;;;;;0.10;0.10;;;;;;;7.91;74.83;99941.28;4943943;28;20051;-70
2022/09/06 00:10:04;;;;;;;0.10;0.10;;;;;;;7.85;75.02;99945.84;4946147;28;20057;-70
2022/09/06 00:12:30;;;;;;;0.10;0.10;;;;;;;7.84;75.08;99949.63;4946609;28;20046;-69
2022/09/06 00:14:56;;;;;;;0.00;0.00;;;;;;;7.85;75.02;99943.13;4930932;28;20046;-70
2022/09/06 00:17:23;;;;;;;0.00;0.00;;;;;;;7.88;75.09;99952.69;4964430;28;20121;-69
2022/09/06 00:19:49;;;;;;;0.10;0.10;;;;;;;7.87;74.91;99943.69;4965848;28;20081;-70
2022/09/06 00:22:15;;;;;;;0.00;0.00;;;;;;;7.84;74.94;99949.63;4969030;28;20074;-69
2022/09/06 00:24:42;;;;;;;0.08;0.08;;;;;;;7.80;74.71;99938.44;4946982;28;20043;-68
2022/09/06 00:27:09;;;;;;;0.00;0.00;;;;;;;7.82;75.36;99942.81;4966124;28;20815;-67
2022/09/06 00:29:35;;;;;;;0.10;0.10;;;;;;;7.80;75.23;99946.63;4963940;28;20473;-68
2022/09/06 00:32:01;;;;;;;0.25;0.10;;;;;;;7.84;75.10;99946.91;4966184;28;20110;-69
2022/09/06 00:34:27;;;;;;;0.00;0.00;;;;;;;7.89;75.07;99952.44;4964485;28;20046;-70
2022/09/06 00:36:54;;;;;;;0.00;0.00;;;;;;;7.93;74.73;99947.28;4947148;28;20072;-69
2022/09/06 00:39:20;;;;;;;0.10;0.10;;;;;;;7.98;74.68;99944.66;4963851;28;20082;-69
2022/09/06 00:41:47;;;;;;;0.10;0.10;;;;;;;8.02;74.33;99947.66;4964700;28;20046;-68
2022/09/06 00:44:14;;;;;;;0.00;0.00;;;;;;;8.05;74.12;99952.63;4944033;28;20053;-67
2022/09/06 00:46:45;;;;;;;0.10;0.10;;;;;;;8.03;74.05;99949.31;4949097;28;20539;-69
2022/09/06 00:49:15;;;;;;;0.10;0.10;;;;;;;7.95;74.45;99948.69;4965802;28;20149;-68
2022/09/06 00:51:42;;;;;;;0.10;0.10;;;;;;;7.94;74.41;99947.06;4947349;28;20074;-69
2022/09/06 00:54:09;;;;;;;0.10;0.10;;;;;;;7.91;74.37;99949.44;4966182;28;20072;-69
2022/09/06 00:56:41;;;;;;;0.10;0.10;;;;;;;7.85;74.49;99947.75;4932678;28;20525;-69
2022/09/06 00:59:08;;;;;;;0.10;0.10;;;;;;;7.86;74.43;99950.19;4934106;28;20047;-69
2022/09/06 01:01:34;;;;;;;;;;;;;;;7.91;74.19;99950.28;4964812;28;20126;-69
2022/09/06 01:04:02;;;;;;;0.10;0.10;;;;;;;7.97;73.73;99945.72;4946467;28;19933;-69
2022/09/06 01:06:33;;;;;;;;;;;;;;;7.99;73.64;99931.84;4933146;28;20141;-69
2022/09/06 01:09:12;;;;;;;0.10;0.10;;;;;;;7.96;73.32;99935.91;4964614;28;19989;-70
2022/09/06 01:11:52;;;;;;;0.10;0.10;;;;;;;7.92;73.56;99948.38;4951195;28;20503;-68
2022/09/06 01:14:32;;;;;;;0.10;0.10;;;;;;;7.89;73.70;99943.44;4949117;28;20078;-69
2022/09/06 01:17:09;;;;;;;0.10;0.10;;;;;;;7.85;73.75;99940.41;4967168;28;20050;-68
2022/09/06 01:20:11;;;;;;;0.10;0.10;;;;;;;7.84;73.82;99944.19;4968241;28;20039;-69
2022/09/06 01:23:10;;;;;;;0.10;0.10;;;;;;;7.83;73.67;99936.28;4944888;28;20293;-68
2022/09/06 01:25:49;;;;;;;0.03;0.03;;;;;;;7.80;74.02;99935.72;4963042;28;20047;-69
2022/09/06 01:28:31;;;;;;;0.10;0.10;;;;;;;7.86;73.67;99935.78;4933345;28;20100;-70
2022/09/06 01:31:07;;;;;;;0.00;0.00;;;;;;;7.87;73.53;99937.44;4964701;28;20066;-69
2022/09/06 01:33:41;;;;;;;0.10;0.10;;;;;;;7.90;73.32;99942.34;4947152;28;20078;-70
2022/09/06 01:36:12;;;;;;;0.10;0.10;;;;;;;7.92;72.95;99942.94;4946825;28;20043;-69
2022/09/06 01:38:38;;;;;;;0.10;0.10;;;;;;;7.94;73.13;99948.94;4965169;28;20055;-69
2022/09/06 01:41:04;;;;;;;0.10;0.10;;;;;;;7.97;73.14;99947.63;4964371;28;20039;-69
2022/09/06 01:43:36;;;;;;;0.10;0.10;;;;;;;7.99;72.98;99948.19;4963584;28;20537;-68
2022/09/06 01:46:12;;;;;;;0.00;0.00;;;;;;;7.97;72.90;99934.84;4946946;28;20061;-69
2022/09/06 01:48:54;;;;;;;0.10;0.10;;;;;;;7.92;73.31;99946.47;4966666;28;20047;-68
2022/09/06 01:51:30;;;;;;;0.17;0.10;;;;;;;7.89;73.60;99940.72;4931517;28;20065;-69
2022/09/06 01:54:06;;;;;;;0.08;0.08;;;;;;;7.87;73.83;99945.59;4946157;28;20426;-69
2022/09/06 01:56:41;;;;;;;0.35;0.10;;;;;;;7.88;73.92;99941.78;4948658;28;20448;-69
2022/09/06 01:59:35;;;;;;;0.10;0.10;;;;;;;7.90;73.77;99948.66;4947945;28;20050;-70
2022/09/06 02:02:07;;;;;;;0.10;0.10;;;;;;;7.87;73.58;99946.41;4947829;28;20510;-70
2022/09/06 02:04:41;;;;;;;0.15;0.15;;;;;;;7.85;73.42;99943.13;4948497;28;20526;-68
2022/09/06 02:07:13;;;;;;;0.38;0.10;;;;;;;7.82;73.48;99934.66;4964228;28;20147;-69
2022/09/06 02:09:42;;;;;;;1.15;0.10;;;;;;;7.75;73.23;99938.38;4966664;28;20104;-69
2022/09/06 02:12:13;;;;;;;0.43;0.10;;;;;;;7.69;73.11;99950.28;4949299;28;20057;-69
2022/09/06 02:14:47;;;;;;;0.10;0.10;;;;;;;7.65;73.46;99949.13;4948048;29;20062;-68
2022/09/06 02:17:18;;;;;;;0.10;0.10;;;;;;;7.58;73.50;99943.03;4929936;29;20136;-68
2022/09/06 02:19:48;;;;;;;0.00;0.00;;;;;;;7.54;73.80;99947.34;4946627;29;20167;-69
2022/09/06 02:22:19;;;;;;;0.10;0.10;;;;;;;7.50;73.87;99947.84;4947328;28;20051;-68
2022/09/06 02:24:48;;;;;;;0.00;0.00;;;;;;;7.51;73.92;99954.09;4947655;28;20264;-69
2022/09/06 02:27:15;;;;;;;0.10;0.10;;;;;;;7.34;73.78;99926.94;4954127;28;20141;-68
2022/09/06 02:29:43;;;;;;;0.10;0.10;;;;;;;7.45;73.97;99950.47;4949841;28;20145;-71
2022/09/06 02:32:14;;;;;;;0.10;0.10;;;;;;;7.46;74.05;99951.31;4933484;28;20615;-70
2022/09/06 02:34:42;;;;;;;0.08;0.08;;;;;;;7.42;73.82;99948.25;4951666;28;20125;-70
2022/09/06 02:37:11;;;;;;;0.20;0.10;;;;;;;7.38;73.42;99947.94;4951189;28;20082;-70
2022/09/06 02:39:37;;;;;;;0.00;0.00;;;;;;;7.35;73.39;99951.16;4932575;28;20066;-70
2022/09/06 02:42:04;;;;;;;0.10;0.10;;;;;;;7.33;73.56;99955.19;4951736;28;20057;-70
2022/09/06 02:44:31;;;;;;;0.10;0.10;;;;;;;7.32;73.73;99956.28;4933837;28;20418;-70
2022/09/06 02:47:00;;;;;;;0.10;0.10;;;;;;;7.33;73.73;99949.75;4969133;28;20481;-70
2022/09/06 02:49:26;;;;;;;0.10;0.10;;;;;;;7.35;73.70;99961.22;4947165;28;20058;-69
2022/09/06 02:51:52;;;;;;;0.10;0.10;;;;;;;7.41;73.90;99960.22;4968004;28;20237;-70
2022/09/06 02:54:18;;;;;;;0.10;0.10;;;;;;;7.50;73.84;99953.28;4951131;28;20050;-71
2022/09/06 02:56:44;;;;;;;0.10;0.10;;;;;;;7.59;73.74;99958.28;4950051;28;20053;-70
2022/09/06 02:59:10;;;;;;;0.10;0.10;;;;;;;7.65;73.80;99963.56;4968714;28;20050;-70
2022/09/06 03:01:37;;;;;;;0.10;0.10;;;;;;;7.74;73.73;99963.13;4967410;28;20109;-70
2022/09/06 03:04:04;;;;;;;0.15;0.15;;;;;;;7.85;73.45;99970.34;4967248;28;20565;-70
2022/09/06 03:06:31;;;;;;;1.13;0.30;;;;;;;7.93;73.06;99960.91;4949584;28;20050;-71
2022/09/06 03:08:59;;;;;;;0.10;0.10;;;;;;;8.00;72.96;99963.44;4968817;28;20062;-71
2022/09/06 03:11:25;;;;;;;0.10;0.10;;;;;;;8.02;72.66;99951.22;4951048;28;20521;-70
2022/09/06 03:13:51;;;;;;;0.10;0.10;;;;;;;8.06;72.00;99965.16;4965494;28;20076;-69
2022/09/06 03:16:19;;;;;;;0.20;0.13;;;;;;;8.07;71.57;99962.16;4969740;28;20062;-70
2022/09/06 03:18:45;;;;;;;0.35;0.10;;;;;;;8.08;71.50;99955.66;4946046;28;20082;-70
2022/09/06 03:21:13;;;;;;;0.73;0.20;;;;;;;8.07;71.35;99954.00;4965302;28;20145;-70
2022/09/06 03:23:39;;;;;;;0.10;0.10;;;;;;;8.07;71.04;99967.63;4932017;28;20047;-69
2022/09/06 03:26:06;;;;;;;0.10;0.10;;;;;;;8.07;70.96;99961.38;4947521;28;20089;-70
2022/09/06 03:28:34;;;;;;;0.10;0.10;;;;;;;8.09;70.93;99970.91;4966463;28;20042;-70
2022/09/06 03:31:00;;;;;;;0.00;0.00;;;;;;;8.14;70.79;99972.06;4964915;28;20043;-70
2022/09/06 03:33:26;;;;;;;0.13;0.13;;;;;;;8.16;70.60;99972.63;4948732;28;20061;-70
2022/09/06 03:35:54;;;;;;;0.10;0.10;;;;;;;8.19;70.28;99972.13;4947935;28;20065;-70
2022/09/06 03:38:22;;;;;;;;;;;;;;;8.21;70.19;99969.97;4949930;28;20114;-69
2022/09/06 03:40:49;;;;;;;0.30;0.10;;;;;;;8.10;69.76;99952.69;4948314;28;19930;-70
2022/09/06 03:43:16;;;;;;;0.10;0.10;;;;;;;8.19;69.37;99967.47;4948651;28;20530;-69
2022/09/06 03:45:45;;;;;;;0.10;0.10;;;;;;;8.16;69.62;99969.91;4948809;28;20066;-70
2022/09/06 03:48:11;;;;;;;0.70;0.10;;;;;;;8.18;69.65;99970.47;4947373;28;20054;-70
2022/09/06 03:50:36;;;;;;;0.13;0.13;;;;;;;8.20;69.59;99965.59;4965664;28;20051;-70
2022/09/06 03:53:03;;;;;;;0.10;0.10;;;;;;;8.21;69.78;99973.53;4963916;28;20149;-70
2022/09/06 03:55:30;;;;;;;0.10;0.10;;;;;;;8.21;69.71;99978.13;4965671;28;20061;-70
2022/09/06 03:57:56;;;;;;;0.10;0.10;;;;;;;8.21;69.63;99978.13;4965131;28;20186;-70
2022/09/06 04:00:23;;;;;;;0.10;0.10;;;;;;;8.21;69.73;99975.41;4965966;28;20440;-70
2022/09/06 04:02:49;;;;;;;0.10;0.10;;;;;;;8.23;69.46;99982.25;4965856;28;20038;-70
2022/09/06 04:05:15;;;;;;;0.10;0.10;;;;;;;8.30;69.36;99979.34;4965154;28;20054;-69
2022/09/06 04:07:42;;;;;;;0.10;0.10;;;;;;;8.32;69.12;99974.44;4964999;28;20133;-68
2022/09/06 04:10:09;;;;;;;0.10;0.10;;;;;;;8.35;69.03;99967.66;4946937;28;20066;-69
2022/09/06 04:12:36;;;;;;;0.30;0.20;;;;;;;8.37;68.86;99979.94;4963225;28;20671;-69
2022/09/06 04:15:02;;;;;;;;;;;;;;;8.41;68.57;99977.53;4962284;28;20141;-69
2022/09/06 04:17:28;;;;;;;0.55;0.13;;;;;;;8.44;68.33;99974.28;4965055;28;20452;-69
2022/09/06 04:19:54;;;;;;;0.20;0.20;;;;;;;8.48;68.46;99975.41;4947816;28;20074;-70
2022/09/06 04:22:21;;;;;;;0.60;0.20;;;;;;;8.53;68.68;99979.34;4946689;28;20309;-69
2022/09/06 04:24:47;;;;;;;0.00;0.00;;;;;;;8.55;68.67;99983.44;4967269;28;20573;-70
2022/09/06 04:27:13;;;;;;;0.10;0.10;;;;;;;8.58;68.65;99987.56;4965571;28;20078;-69
2022/09/06 04:29:40;;;;;;;0.10;0.10;;;;;;;8.59;68.34;99981.03;4964661;28;20066;-69
2022/09/06 04:32:06;;;;;;;;;;;;;;;8.65;68.24;99979.97;4964656;28;20070;-68
2022/09/06 04:34:32;;;;;;;0.10;0.10;;;;;;;8.69;67.62;99977.56;4948074;28;20008;-70
2022/09/06 04:36:59;;;;;;;0.20;0.20;;;;;;;8.68;67.07;99976.75;4948354;28;20063;-69
2022/09/06 04:39:25;;;;;;;0.10;0.10;;;;;;;8.64;67.12;99984.63;4965537;28;20153;-69
2022/09/06 04:41:51;;;;;;;0.10;0.10;;;;;;;8.64;67.11;99981.06;4962783;28;20406;-69
2022/09/06 04:44:17;;;;;;;0.20;0.20;;;;;;;8.64;67.25;99990.06;4947781;28;20065;-70
2022/09/06 04:46:44;;;;;;;1.77;0.20;;;;;;;8.65;67.25;99967.19;4618891;28;9999872;-69
2022/09/06 04:49:10;;;;;;;;;;;;;;;8.76;67.18;99980.94;4929121;28;20153;-69
2022/09/06 04:51:38;;;;;;;0.38;0.15;;;;;;;8.75;67.06;99969.19;4941734;28;19926;-69
2022/09/06 04:54:04;;;;;;;0.35;0.10;;;;;;;8.77;67.17;99975.19;4962949;28;20434;-69
2022/09/06 04:56:30;;;;;;;0.68;0.20;;;;;;;8.87;66.93;99979.91;4961952;28;20062;-69
2022/09/06 04:58:56;;;;;;;0.10;0.10;;;;;;;8.96;66.37;99974.81;4963118;28;20589;-69
2022/09/06 05:01:24;;;;;;;0.10;0.10;;;;;;;8.96;66.09;99982.19;4581140;28;9999877;-68
2022/09/06 05:03:52;;;;;;;0.38;0.20;;;;;;;8.96;66.08;99979.47;4960323;28;20082;-70
2022/09/06 05:06:20;;;;;;;0.68;0.10;;;;;;;8.92;65.94;99977.25;4929184;28;20283;-69
2022/09/06 05:08:47;;;;;;;0.10;0.10;;;;;;;8.96;65.87;99979.47;4967063;28;20031;-70
2022/09/06 05:11:13;;;;;;;0.10;0.10;;;;;;;8.99;65.58;99981.66;4965809;28;20074;-70
2022/09/06 05:13:41;;;;;;;0.20;0.20;;;;;;;9.11;65.05;99963.22;4931844;28;20034;-70
2022/09/06 05:16:08;;;;;;;0.20;0.10;;;;;;;9.35;64.70;99962.81;4933604;28;20066;-70
2022/09/06 05:18:34;;;;;;;0.10;0.10;;;;;;;9.51;64.32;99971.94;4943782;28;20086;-70
2022/09/06 05:21:02;;;;;;;0.20;0.20;;;;;;;9.59;64.05;99974.16;4944160;28;20070;-70
2022/09/06 05:23:28;;;;;;;0.20;0.20;;;;;;;9.69;64.09;99970.69;4928687;28;20047;-70
2022/09/06 05:25:54;;;;;;;0.10;0.10;;;;;;;9.81;63.71;99956.81;4945342;28;20078;-69
2022/09/06 05:28:21;;;;;;;0.10;0.10;;;;;;;9.91;63.27;99964.25;4928878;28;20105;-70
2022/09/06 05:30:47;;;;;;;0.10;0.10;;;;;;;9.91;62.89;99965.06;4962831;28;20055;-70
2022/09/06 05:33:18;;;;;;;0.17;0.10;;;;;;;9.79;62.48;99965.28;4944535;28;20051;-70
2022/09/06 05:35:44;;;;;;;0.80;0.25;;;;;;;9.72;62.44;99967.44;4961354;28;20070;-69
2022/09/06 05:38:12;;;;;;;0.10;0.10;;;;;;;9.73;61.94;99960.03;4924812;28;20063;-69
2022/09/06 05:40:38;;;;;;;0.32;0.10;;;;;;;9.72;61.82;99970.16;4921547;28;20956;-69
2022/09/06 05:43:05;;;;;;;0.45;0.10;;;;;;;9.71;61.84;99965.78;4959026;28;20051;-69
2022/09/06 05:45:31;;;;;;;0.40;0.20;;;;;;;9.72;61.68;99967.44;4941513;28;20078;-69
2022/09/06 05:47:57;;;;;;;0.20;0.20;;;;;;;9.72;61.24;99969.31;4962844;28;20133;-68
2022/09/06 05:50:23;;;;;;;0.10;0.10;;;;;;;9.70;61.18;99986.00;4946650;28;20054;-68
2022/09/06 05:52:49;;;;;;;0.25;0.25;;;;;;;9.75;61.15;99966.06;4948656;28;20514;-68
2022/09/06 05:55:16;;;;;;;0.28;0.10;;;;;;;9.87;60.97;99971.34;4949943;28;20053;-68
2022/09/06 05:57:43;;;;;;;0.10;0.10;;;;;;;9.82;60.69;99971.28;4948767;28;20047;-71
2022/09/06 06:00:11;;;;;;;0.13;0.13;;;;;;;9.80;61.01;99968.84;4963896;28;20054;-69
2022/09/06 06:02:40;;;;;;;0.10;0.10;;;;;;;9.85;60.57;99970.78;4965548;28;20540;-70
2022/09/06 06:05:09;;;;;;;0.20;0.20;;;;;;;9.75;60.74;99963.31;4949620;28;20054;-70
2022/09/06 06:07:36;;;;;;;0.10;0.10;;;;;;;9.68;60.69;99977.25;4934563;28;20494;-68
2022/09/06 06:10:03;;;;;;;0.20;0.20;;;;;;;9.57;60.67;99959.97;4957995;28;20047;-69
2022/09/06 06:12:30;;;;;;;0.20;0.20;;;;;;;9.65;60.97;99980.47;4964614;28;20101;-69
2022/09/06 06:14:56;;;;;;;0.40;0.20;;;;;;;9.72;60.58;99980.25;4964628;28;20200;-70
2022/09/06 06:17:23;;;;;;;1.08;0.40;;;;;;;9.77;60.47;99972.91;4929722;28;20047;-70
2022/09/06 06:19:49;;;;;;;0.15;0.15;;;;;;;9.90;60.34;99965.31;4946738;28;20055;-70
2022/09/06 06:22:15;;;;;;;0.17;0.17;;;;;;;10.11;59.86;99981.78;4932448;28;20133;-70
2022/09/06 06:24:41;;;;;;;0.10;0.10;;;;;;;10.24;58.98;99977.75;4946350;28;20070;-70
2022/09/06 06:27:08;;;;;;;0.20;0.20;;;;;;;10.33;58.66;99974.25;4966353;28;20107;-70
2022/09/06 06:29:35;;;;;;;0.20;0.20;;;;;;;10.40;58.24;99973.16;4948421;28;20062;-70
2022/09/06 06:32:01;;;;;;;;;;;;;;;10.44;57.95;99971.53;4945331;28;20119;-70
2022/09/06 06:34:27;;;;;;;0.20;0.20;;;;;;;10.39;57.88;99969.59;4965023;28;19932;-68
2022/09/06 06:36:53;;;;;;;0.20;0.20;;;;;;;10.24;58.17;99969.56;4963076;28;20069;-68
2022/09/06 06:39:19;;;;;;;0.10;0.10;;;;;;;10.11;58.43;99963.50;4946962;28;20524;-69
2022/09/06 06:41:47;;;;;;;0.15;0.10;;;;;;;9.97;58.64;99962.34;4929554;28;20050;-68
2022/09/06 06:44:38;;;;;;;0.60;0.20;;;;;;;9.83;59.37;99976.50;4948409;28;20051;-70
2022/09/06 06:47:04;;;;;;;0.10;0.10;;;;;;;9.83;59.55;99970.19;4965149;28;20042;-71
2022/09/06 06:49:31;;;;;;;0.13;0.13;;;;;;;9.73;60.43;99976.44;4965742;28;20054;-71
2022/09/06 06:51:58;;;;;;;0.10;0.10;;;;;;;9.56;61.55;99974.69;4918914;28;20046;-69
2022/09/06 06:54:24;;;;;;;0.10;0.10;;;;;;;9.45;62.97;99983.94;4970088;28;20054;-71
2022/09/06 06:56:51;;;;;;;0.10;0.10;;;;;;;9.31;64.14;99978.91;4973611;28;20074;-69
2022/09/06 06:59:17;;;;;;;0.10;0.10;;;;;;;9.19;65.35;99979.09;4951269;29;20065;-71
2022/09/06 07:01:45;;;;;;;0.10;0.10;;;;;;;9.17;66.67;99975.81;4952312;28;20109;-71
2022/09/06 07:04:13;;;;;;;0.10;0.10;;;;;;;9.26;69.06;99987.06;4954359;28;20047;-70
2022/09/06 07:06:49;;;;;;;0.47;0.20;;;;;;;9.39;70.57;99979.50;4953906;28;20050;-69
2022/09/06 07:09:17;;;;;;;0.10;0.10;;;;;;;9.53;70.01;99979.88;4971891;28;20121;-69
2022/09/06 07:11:43;;;;;;;0.10;0.10;;;;;;;9.83;69.35;99981.94;4950795;28;20050;-70
2022/09/06 07:14:09;;;;;;;0.10;0.10;;;;;;;10.04;67.76;99969.22;4968738;28;20203;-69
2022/09/06 07:16:35;;;;;;;0.10;0.10;;;;;;;10.14;66.11;99965.69;4951016;28;20473;-69
2022/09/06 07:19:03;;;;;;;0.20;0.20;;;;;;;10.11;64.98;99979.06;4952894;28;20461;-72
2022/09/06 07:21:30;;;;;;;0.30;0.20;;;;;;;10.33;64.55;99973.41;4921161;28;20054;-72
2022/09/06 07:23:56;;;;;;;0.20;0.20;;;;;;;10.82;62.75;99976.81;4970731;28;20093;-69
2022/09/06 07:26:26;;;;;;;0.20;0.20;;;;;;;11.34;61.09;99969.41;4971344;28;20506;-68
2022/09/06 07:28:52;;;;;;;0.30;0.30;;;;;;;11.59;60.63;99968.53;4971989;28;20043;-72
2022/09/06 07:31:19;;;;;;;0.47;0.30;;;;;;;12.41;58.64;99968.53;4953506;28;20138;-72
2022/09/06 07:33:45;;;;;;;0.20;0.20;;;;;;;12.86;56.52;99969.34;4952250;28;20039;-72
2022/09/06 07:36:12;;;;;;;0.20;0.20;;;;;;;12.83;55.73;99964.44;4952894;28;20518;-71
2022/09/06 07:38:39;;;;;;;0.20;0.20;;;;;;;12.46;55.58;99963.00;4949577;28;20097;-70
2022/09/06 07:41:07;;;;;;;0.10;0.10;;;;;;;12.08;55.67;99963.47;4948842;28;20105;-71
2022/09/06 07:43:35;;;;;;;0.20;0.20;;;;;;;11.84;55.67;99964.09;4970678;28;20086;-71
2022/09/06 07:46:03;;;;;;;0.20;0.20;;;;;;;12.10;55.05;99960.47;4951795;28;20046;-71
2022/09/06 07:48:30;;;;;;;0.20;0.20;;;;;;;12.37;53.59;99965.53;4967894;28;20047;-71
2022/09/06 07:51:03;;;;;;;0.35;0.28;;;;;;;12.48;52.83;99961.63;4946437;29;20047;-71
2022/09/06 07:53:31;;;;;;;0.30;0.30;;;;;;;12.26;52.60;99953.00;4965218;28;20077;-70
2022/09/06 07:55:58;;;;;;;0.22;0.20;;;;;;;12.00;53.48;99962.09;4968857;28;20141;-70
2022/09/06 07:58:25;;;;;;;0.35;0.20;;;;;;;11.81;54.13;99953.72;4968101;28;20145;-70
2022/09/06 08:00:51;;;;;;;0.20;0.20;;;;;;;11.57;54.89;99961.72;4968860;28;20483;-70
2022/09/06 08:03:17;;;;;;;0.30;0.30;;;;;;;11.50;55.27;99948.31;4974795;28;20065;-69
2022/09/06 08:05:43;;;;;;;0.20;0.20;;;;;;;11.56;54.98;99949.13;4952533;28;20133;-69
2022/09/06 08:08:09;;;;;;;0.20;0.20;;;;;;;11.59;54.20;99951.31;4968946;28;20202;-69
2022/09/06 08:10:37;;;;;;;0.20;0.20;;;;;;;11.70;54.18;99950.16;4950728;28;20501;-69
2022/09/06 08:13:03;;;;;;;0.20;0.20;;;;;;;11.82;53.40;99940.81;4950172;28;20489;-69
2022/09/06 08:15:30;;;;;;;0.10;0.10;;;;;;;11.74;53.31;99934.81;4946016;28;20043;-69
2022/09/06 08:17:56;;;;;;;;;;;;;;;11.40;54.59;99940.13;4946780;28;20118;-69
2022/09/06 08:20:22;;;;;;;0.13;0.13;;;;;;;11.04;56.31;99944.53;4967860;28;19926;-69
2022/09/06 08:22:48;;;;;;;0.40;0.20;;;;;;;10.90;57.32;99948.91;4931256;28;20076;-69
2022/09/06 08:25:14;;;;;;;0.13;0.13;;;;;;;10.84;57.91;99942.63;4953665;28;20062;-69
2022/09/06 08:27:44;;;;;;;0.17;0.17;;;;;;;10.83;58.72;99953.81;4970685;28;20051;-69
2022/09/06 08:30:11;;;;;;;0.20;0.20;;;;;;;10.97;57.67;99948.66;4923097;28;20051;-70
2022/09/06 08:32:37;;;;;;;0.20;0.20;;;;;;;11.09;57.82;99949.19;4918864;28;20563;-71
2022/09/06 08:35:06;;;;;;;0.20;0.20;;;;;;;11.26;57.50;99946.16;4953438;28;20031;-69
2022/09/06 08:37:32;;;;;;;0.28;0.28;;;;;;;11.68;56.69;99948.81;4966470;28;20187;-69
2022/09/06 08:39:59;;;;;;;0.30;0.30;;;;;;;12.37;55.36;99943.59;4949530;28;20082;-69
2022/09/06 08:42:25;;;;;;;0.20;0.20;;;;;;;12.77;53.89;99943.59;4960015;28;20137;-69
2022/09/06 08:44:54;;;;;;;0.25;0.25;;;;;;;12.78;53.60;99939.75;4968945;28;20046;-69
2022/09/06 08:47:21;;;;;;;0.20;0.20;;;;;;;12.85;52.86;99940.25;4971948;28;20051;-69
2022/09/06 08:49:51;;;;;;;0.20;0.20;;;;;;;12.74;52.19;99924.97;4968371;28;20073;-71
2022/09/06 08:52:41;;;;;;;0.50;0.50;;;;;;;13.17;51.19;99918.84;4937626;28;20047;-68
2022/09/06 08:55:25;;;;;;;;;;;;;;;14.21;48.28;99923.16;4942325;28;20064;-69
2022/09/06 08:58:05;;;;;;;0.90;0.28;;;;;;;14.08;48.53;99928.28;4969296;28;20393;-70
2022/09/06 09:00:36;;;;;;;0.20;0.20;;;;;;;13.72;49.99;99931.47;4969670;28;20046;-70
2022/09/06 09:03:08;;;;;;;0.20;0.20;;;;;;;13.57;50.18;99925.06;4969921;28;20051;-68
2022/09/06 09:05:36;;;;;;;0.20;0.20;;;;;;;13.58;50.30;99914.88;4969797;28;20058;-69
2022/09/06 09:08:11;;;;;;;0.30;0.30;;;;;;;13.56;50.06;99917.94;4968691;28;20150;-70
2022/09/06 09:10:41;;;;;;;0.30;0.30;;;;;;;13.81;49.76;99917.91;4951283;28;20137;-69
2022/09/06 09:13:14;;;;;;;0.22;0.22;;;;;;;13.99;49.15;99911.63;4963363;28;20490;-69
2022/09/06 09:15:42;;;;;;;0.30;0.30;;;;;;;13.70;49.27;99920.78;4951488;28;20047;-69
2022/09/06 09:18:08;;;;;;;0.38;0.38;;;;;;;13.43;49.74;99913.09;4950800;28;20054;-69
2022/09/06 09:20:36;;;;;;;0.60;0.60;;;;;;;13.81;49.09;99906.91;4952394;28;20055;-69
2022/09/06 09:23:03;;;;;;;0.20;0.20;;;;;;;14.37;46.94;99908.09;4968852;28;20057;-69
2022/09/06 09:25:32;;;;;;;0.20;0.20;;;;;;;13.88;47.55;99910.13;4950325;28;20138;-68
2022/09/06 09:27:59;;;;;;;0.20;0.20;;;;;;;13.21;48.99;99910.84;4969159;28;20051;-68
2022/09/06 09:30:26;;;;;;;0.30;0.30;;;;;;;12.81;49.71;99917.25;4952399;28;20577;-69
2022/09/06 09:32:56;;;;;;;0.43;0.20;;;;;;;12.46;50.52;99910.91;4968817;28;20047;-68
2022/09/06 09:35:30;;;;;;;0.20;0.20;;;;;;;12.10;50.98;99911.13;4935727;28;20389;-70
2022/09/06 09:38:01;;;;;;;0.20;0.20;;;;;;;11.85;51.65;99910.13;4951506;28;20059;-70
2022/09/06 09:40:32;;;;;;;0.43;0.30;;;;;;;11.73;52.48;99913.19;4965160;28;20098;-70
2022/09/06 09:43:12;;;;;;;0.30;0.30;;;;;;;11.67;52.97;99909.63;4972614;28;20054;-70
2022/09/06 09:45:38;;;;;;;0.20;0.20;;;;;;;11.76;53.27;99907.97;4951101;28;20061;-70
2022/09/06 09:48:23;;;;;;;0.30;0.30;;;;;;;11.84;53.42;99906.56;4949092;28;20101;-71
2022/09/06 09:50:49;;;;;;;0.20;0.20;;;;;;;11.78;53.66;99910.41;4970916;28;20053;-71
2022/09/06 09:53:18;;;;;;;0.30;0.30;;;;;;;11.68;54.24;99911.28;4967342;28;20465;-71
2022/09/06 09:55:45;;;;;;;0.20;0.20;;;;;;;11.68;54.67;99911.28;4951717;28;20474;-70
2022/09/06 09:58:21;;;;;;;0.20;0.20;;;;;;;11.85;54.70;99912.84;4967933;28;20043;-71
2022/09/06 10:00:48;;;;;;;0.28;0.28;;;;;;;11.99;54.27;99913.88;4968458;28;20085;-69
2022/09/06 10:03:17;;;;;;;0.10;0.10;;;;;;;12.04;54.49;99905.69;4969593;28;20406;-71
2022/09/06 10:05:55;;;;;;;0.30;0.20;;;;;;;11.92;55.71;99902.41;4969051;28;20387;-70
2022/09/06 10:08:23;;;;;;;0.10;0.10;;;;;;;11.71;56.44;99899.78;4950732;28;20425;-71
2022/09/06 10:10:50;;;;;;;0.10;0.10;;;;;;;11.42;58.63;99905.91;4919632;28;20050;-71
2022/09/06 10:13:20;;;;;;;0.10;0.10;;;;;;;11.03;59.97;99893.66;4950908;28;20641;-70
2022/09/06 10:15:48;;;;;;;0.20;0.20;;;;;;;11.01;60.57;99904.06;4968357;28;20054;-71
2022/09/06 10:18:27;;;;;;;0.20;0.20;;;;;;;11.16;59.67;99910.56;4949537;28;20517;-70
2022/09/06 10:20:57;;;;;;;0.28;0.28;;;;;;;11.47;59.26;99905.03;4942424;28;20046;-71
2022/09/06 10:23:33;;;;;;;0.20;0.20;;;;;;;11.72;59.45;99915.13;4947353;28;20528;-71
2022/09/06 10:26:05;;;;;;;0.25;0.20;;;;;;;12.03;58.48;99912.28;4951367;28;20070;-71
2022/09/06 10:28:35;;;;;;;0.22;0.20;;;;;;;12.04;58.02;99904.84;4933688;28;20059;-70
2022/09/06 10:31:18;;;;;;;0.20;0.20;;;;;;;11.93;58.17;99906.81;4968923;28;20062;-74
2022/09/06 10:33:59;;;;;;;0.20;0.20;;;;;;;11.65;58.12;99897.34;4969416;28;20047;-71
2022/09/06 10:36:31;;;;;;;0.13;0.13;;;;;;;11.47;58.96;99902.31;4970692;28;20073;-69
2022/09/06 10:38:59;;;;;;;0.20;0.20;;;;;;;11.53;58.39;99911.31;4969430;28;20058;-70
2022/09/06 10:41:39;;;;;;;0.28;0.28;;;;;;;11.71;57.32;99898.94;4953043;28;20070;-70
2022/09/06 10:44:26;;;;;;;0.20;0.20;;;;;;;11.82;56.15;99913.41;4922726;28;20580;-69
2022/09/06 10:47:02;;;;;;;0.10;0.10;;;;;;;11.63;56.30;99894.88;4971481;28;20204;-70
2022/09/06 10:49:32;;;;;;;0.10;0.10;;;;;;;11.43;56.78;99906.69;4953075;28;20039;-70
2022/09/06 10:52:01;;;;;;;0.15;0.15;;;;;;;11.40;57.18;99908.09;4922491;28;20058;-68
2022/09/06 10:54:34;;;;;;;0.20;0.20;;;;;;;11.48;56.95;99907.50;4953811;28;20055;-69
2022/09/06 10:57:09;;;;;;;0.10;0.10;;;;;;;11.64;56.85;99899.25;4954079;28;20101;-69
2022/09/06 10:59:41;;;;;;;0.20;0.20;;;;;;;11.84;56.12;99908.47;4954820;28;20054;-68
2022/09/06 11:02:17;;;;;;;0.20;0.20;;;;;;;11.94;55.45;99892.00;4952552;28;20050;-69
2022/09/06 11:04:47;;;;;;;0.20;0.20;;;;;;;11.91;55.61;99906.25;4938517;28;20062;-68
2022/09/06 11:07:23;;;;;;;0.20;0.20;;;;;;;11.92;56.22;99910.66;4953516;28;20089;-70
2022/09/06 11:09:55;;;;;;;0.40;0.20;;;;;;;11.89;56.26;99903.00;4971113;28;20524;-70
2022/09/06 11:12:31;;;;;;;0.30;0.30;;;;;;;11.95;55.76;99903.78;4970738;28;20510;-71
2022/09/06 11:15:00;;;;;;;0.20;0.20;;;;;;;11.89;55.77;99894.78;4953678;28;20049;-70
2022/09/06 11:17:31;;;;;;;0.20;0.20;;;;;;;11.84;56.00;99906.56;4971844;28;20039;-69
2022/09/06 11:20:05;;;;;;;0.22;0.20;;;;;;;11.69;56.30;99899.22;4938660;28;20054;-68
2022/09/06 11:23:13;;;;;;;0.10;0.10;;;;;;;11.52;56.80;99896.00;4970738;28;20050;-69
2022/09/06 11:26:15;;;;;;;0.20;0.20;;;;;;;11.46;57.41;99903.41;4955586;28;20451;-69
2022/09/06 11:28:46;;;;;;;0.10;0.10;;;;;;;11.46;57.49;99901.50;4955105;28;20078;-69
2022/09/06 11:31:25;;;;;;;0.17;0.17;;;;;;;11.30;57.50;99873.34;4961766;28;20053;-69
2022/09/06 11:34:03;;;;;;;0.20;0.20;;;;;;;11.47;57.41;99894.91;4921332;28;20078;-71
2022/09/06 11:36:36;;;;;;;0.20;0.20;;;;;;;11.46;57.34;99896.03;4963073;28;20050;-69
2022/09/06 11:39:06;;;;;;;0.15;0.15;;;;;;;11.45;57.28;99902.59;4962682;28;20078;-69
2022/09/06 11:41:35;;;;;;;1.00;0.30;;;;;;;11.25;57.65;99878.81;4952149;28;20074;-71
2022/09/06 11:44:03;;;;;;;0.25;0.20;;;;;;;11.23;57.94;99896.63;4954142;28;20499;-69
2022/09/06 11:47:00;;;;;;;0.10;0.10;;;;;;;11.11;58.34;99884.06;4968905;28;20580;-68
2022/09/06 11:49:32;;;;;;;0.20;0.20;;;;;;;11.23;58.52;99888.41;4968373;28;20043;-68
2022/09/06 11:52:00;;;;;;;0.20;0.20;;;;;;;11.29;58.86;99893.59;4952673;28;20046;-68